sensor_id;sensor_type;location;lat;lon;timestamp;P1;durP1;ratioP1;P2;durP2;ratioP2
50683;SDS011;36654;45.042;38.994;2023-01-28T00:01:56;37.50;;;17.70;;
50683;SDS011;36654;45.042;38.994;2023-01-28T00:04:22;31.98;;;16.58;;
50683;SDS011;36654;45.042;38.994;2023-01-28T00:06:47;34.92;;;16.15;;
50683;SDS011;36654;45.042;38.994;2023-01-28T00:09:13;39.47;;;17.58;;
50683;SDS011;36654;45.042;38.994;2023-01-28T00:11:38;34.70;;;15.88;;
50683;SDS011;36654;45.042;38.994;2023-01-28T00:14:04;38.42;;;18.33;;
50683;SDS011;36654;45.042;38.994;2023-01-28T00:16:30;40.38;;;17.05;;
50683;SDS011;36654;45.042;38.994;2023-01-28T00:18:55;35.25;;;16.17;;
50683;SDS011;36654;45.042;38.994;2023-01-28T00:21:21;35.05;;;16.45;;
50683;SDS011;36654;45.042;38.994;2023-01-28T00:23:49;39.47;;;17.58;;
50683;SDS011;36654;45.042;38.994;2023-01-28T00:26:16;33.30;;;15.80;;
50683;SDS011;36654;45.042;38.994;2023-01-28T00:28:42;35.70;;;15.18;;
50683;SDS011;36654;45.042;38.994;2023-01-28T00:31:18;36.38;;;16.70;;
50683;SDS011;36654;45.042;38.994;2023-01-28T00:33:46;34.08;;;15.93;;
50683;SDS011;36654;45.042;38.994;2023-01-28T00:36:13;37.33;;;16.35;;
50683;SDS011;36654;45.042;38.994;2023-01-28T00:38:40;32.00;;;15.32;;
50683;SDS011;36654;45.042;38.994;2023-01-28T00:41:10;39.55;;;17.98;;
50683;SDS011;36654;45.042;38.994;2023-01-28T00:43:37;35.05;;;17.13;;
50683;SDS011;36654;45.042;38.994;2023-01-28T00:46:04;41.17;;;17.35;;
50683;SDS011;36654;45.042;38.994;2023-01-28T00:48:31;33.97;;;16.45;;
50683;SDS011;36654;45.042;38.994;2023-01-28T00:50:57;31.75;;;16.20;;
50683;SDS011;36654;45.042;38.994;2023-01-28T00:53:23;39.15;;;16.88;;
50683;SDS011;36654;45.042;38.994;2023-01-28T00:55:49;40.17;;;16.60;;
50683;SDS011;36654;45.042;38.994;2023-01-28T00:58:14;35.88;;;17.10;;
50683;SDS011;36654;45.042;38.994;2023-01-28T01:00:40;33.80;;;16.35;;
50683;SDS011;36654;45.042;38.994;2023-01-28T01:03:05;33.47;;;15.38;;
50683;SDS011;36654;45.042;38.994;2023-01-28T01:05:31;38.83;;;16.70;;
50683;SDS011;36654;45.042;38.994;2023-01-28T01:07:58;36.42;;;15.90;;
50683;SDS011;36654;45.042;38.994;2023-01-28T01:10:24;36.13;;;17.60;;
50683;SDS011;36654;45.042;38.994;2023-01-28T01:12:50;38.55;;;15.82;;
50683;SDS011;36654;45.042;38.994;2023-01-28T01:15:16;39.10;;;16.70;;
50683;SDS011;36654;45.042;38.994;2023-01-28T01:17:43;37.55;;;17.13;;
50683;SDS011;36654;45.042;38.994;2023-01-28T01:20:11;34.00;;;16.27;;
50683;SDS011;36654;45.042;38.994;2023-01-28T01:22:42;33.63;;;17.38;;
50683;SDS011;36654;45.042;38.994;2023-01-28T01:25:08;38.13;;;16.92;;
50683;SDS011;36654;45.042;38.994;2023-01-28T01:27:34;34.03;;;16.08;;
50683;SDS011;36654;45.042;38.994;2023-01-28T01:30:00;32.63;;;14.85;;
50683;SDS011;36654;45.042;38.994;2023-01-28T01:32:29;38.22;;;16.40;;
50683;SDS011;36654;45.042;38.994;2023-01-28T01:34:59;41.17;;;17.27;;
50683;SDS011;36654;45.042;38.994;2023-01-28T01:37:25;38.75;;;16.90;;
50683;SDS011;36654;45.042;38.994;2023-01-28T01:39:51;35.80;;;16.67;;
50683;SDS011;36654;45.042;38.994;2023-01-28T01:42:16;40.13;;;15.63;;
50683;SDS011;36654;45.042;38.994;2023-01-28T01:47:24;58.67;;;17.92;;
50683;SDS011;36654;45.042;38.994;2023-01-28T01:49:55;38.25;;;17.95;;
50683;SDS011;36654;45.042;38.994;2023-01-28T01:52:23;38.03;;;17.27;;
50683;SDS011;36654;45.042;38.994;2023-01-28T01:54:52;39.35;;;17.00;;
50683;SDS011;36654;45.042;38.994;2023-01-28T01:57:23;42.03;;;18.92;;
50683;SDS011;36654;45.042;38.994;2023-01-28T01:59:55;43.67;;;20.35;;
50683;SDS011;36654;45.042;38.994;2023-01-28T02:02:29;40.83;;;18.75;;
50683;SDS011;36654;45.042;38.994;2023-01-28T02:04:54;36.08;;;17.33;;
50683;SDS011;36654;45.042;38.994;2023-01-28T02:07:20;39.40;;;17.88;;
50683;SDS011;36654;45.042;38.994;2023-01-28T02:09:46;37.67;;;16.90;;
50683;SDS011;36654;45.042;38.994;2023-01-28T02:12:19;36.92;;;17.35;;
50683;SDS011;36654;45.042;38.994;2023-01-28T02:14:49;39.35;;;17.35;;
50683;SDS011;36654;45.042;38.994;2023-01-28T02:17:19;42.05;;;17.10;;
50683;SDS011;36654;45.042;38.994;2023-01-28T02:19:48;35.70;;;18.58;;
50683;SDS011;36654;45.042;38.994;2023-01-28T02:30:48;37.50;;;17.83;;
50683;SDS011;36654;45.042;38.994;2023-01-28T02:33:23;35.40;;;16.40;;
50683;SDS011;36654;45.042;38.994;2023-01-28T02:36:35;37.97;;;17.58;;
50683;SDS011;36654;45.042;38.994;2023-01-28T02:39:19;42.55;;;18.33;;
50683;SDS011;36654;45.042;38.994;2023-01-28T02:42:33;36.80;;;18.20;;
50683;SDS011;36654;45.042;38.994;2023-01-28T02:44:54;36.47;;;15.43;;
50683;SDS011;36654;45.042;38.994;2023-01-28T02:47:20;41.50;;;17.38;;
50683;SDS011;36654;45.042;38.994;2023-01-28T02:50:05;39.58;;;16.27;;
50683;SDS011;36654;45.042;38.994;2023-01-28T03:00:46;36.60;;;18.00;;
50683;SDS011;36654;45.042;38.994;2023-01-28T03:03:25;42.17;;;17.92;;
50683;SDS011;36654;45.042;38.994;2023-01-28T03:05:55;42.70;;;18.75;;
50683;SDS011;36654;45.042;38.994;2023-01-28T03:08:37;42.50;;;18.95;;
50683;SDS011;36654;45.042;38.994;2023-01-28T03:11:26;48.00;;;20.15;;
50683;SDS011;36654;45.042;38.994;2023-01-28T03:14:13;41.83;;;18.27;;
50683;SDS011;36654;45.042;38.994;2023-01-28T03:17:01;35.47;;;18.33;;
50683;SDS011;36654;45.042;38.994;2023-01-28T03:19:46;35.92;;;17.00;;
50683;SDS011;36654;45.042;38.994;2023-01-28T03:22:31;39.03;;;17.58;;
50683;SDS011;36654;45.042;38.994;2023-01-28T03:25:19;33.88;;;17.27;;
50683;SDS011;36654;45.042;38.994;2023-01-28T03:28:09;37.13;;;17.67;;
50683;SDS011;36654;45.042;38.994;2023-01-28T03:31:03;40.35;;;17.73;;
50683;SDS011;36654;45.042;38.994;2023-01-28T03:33:50;45.17;;;18.98;;
50683;SDS011;36654;45.042;38.994;2023-01-28T03:36:37;40.78;;;17.83;;
50683;SDS011;36654;45.042;38.994;2023-01-28T03:39:14;42.38;;;16.90;;
50683;SDS011;36654;45.042;38.994;2023-01-28T03:41:42;40.58;;;17.85;;
50683;SDS011;36654;45.042;38.994;2023-01-28T03:44:20;41.08;;;17.92;;
50683;SDS011;36654;45.042;38.994;2023-01-28T03:47:04;38.47;;;17.58;;
50683;SDS011;36654;45.042;38.994;2023-01-28T03:49:33;39.33;;;18.52;;
50683;SDS011;36654;45.042;38.994;2023-01-28T03:51:58;42.03;;;17.75;;
50683;SDS011;36654;45.042;38.994;2023-01-28T03:54:24;39.13;;;18.33;;
50683;SDS011;36654;45.042;38.994;2023-01-28T03:56:49;37.83;;;17.05;;
50683;SDS011;36654;45.042;38.994;2023-01-28T03:59:15;41.20;;;18.40;;
50683;SDS011;36654;45.042;38.994;2023-01-28T04:01:41;42.42;;;19.38;;
50683;SDS011;36654;45.042;38.994;2023-01-28T04:04:06;39.55;;;17.70;;
50683;SDS011;36654;45.042;38.994;2023-01-28T04:06:32;36.15;;;16.38;;
50683;SDS011;36654;45.042;38.994;2023-01-28T04:08:57;41.53;;;17.40;;
50683;SDS011;36654;45.042;38.994;2023-01-28T04:11:24;42.97;;;17.95;;
50683;SDS011;36654;45.042;38.994;2023-01-28T04:13:50;42.92;;;16.52;;
50683;SDS011;36654;45.042;38.994;2023-01-28T04:16:17;45.25;;;18.17;;
50683;SDS011;36654;45.042;38.994;2023-01-28T04:18:44;41.35;;;17.20;;
50683;SDS011;36654;45.042;38.994;2023-01-28T04:21:10;35.67;;;17.63;;
50683;SDS011;36654;45.042;38.994;2023-01-28T04:23:36;35.92;;;17.25;;
50683;SDS011;36654;45.042;38.994;2023-01-28T04:26:03;43.13;;;18.60;;
50683;SDS011;36654;45.042;38.994;2023-01-28T04:28:28;43.92;;;18.52;;
50683;SDS011;36654;45.042;38.994;2023-01-28T04:30:54;37.15;;;17.42;;
50683;SDS011;36654;45.042;38.994;2023-01-28T04:33:20;45.30;;;18.65;;
50683;SDS011;36654;45.042;38.994;2023-01-28T04:35:46;38.60;;;17.52;;
50683;SDS011;36654;45.042;38.994;2023-01-28T04:38:12;44.75;;;18.15;;
50683;SDS011;36654;45.042;38.994;2023-01-28T04:40:37;43.00;;;18.23;;
50683;SDS011;36654;45.042;38.994;2023-01-28T04:43:03;43.17;;;18.55;;
50683;SDS011;36654;45.042;38.994;2023-01-28T04:45:28;42.17;;;17.48;;
50683;SDS011;36654;45.042;38.994;2023-01-28T04:47:55;49.60;;;18.10;;
50683;SDS011;36654;45.042;38.994;2023-01-28T04:50:21;43.72;;;19.77;;
50683;SDS011;36654;45.042;38.994;2023-01-28T04:52:46;42.97;;;17.92;;
50683;SDS011;36654;45.042;38.994;2023-01-28T04:55:12;44.22;;;19.45;;
50683;SDS011;36654;45.042;38.994;2023-01-28T04:57:38;42.38;;;18.73;;
50683;SDS011;36654;45.042;38.994;2023-01-28T05:00:03;47.92;;;18.70;;
50683;SDS011;36654;45.042;38.994;2023-01-28T05:02:30;45.80;;;17.13;;
50683;SDS011;36654;45.042;38.994;2023-01-28T05:04:55;39.25;;;17.80;;
50683;SDS011;36654;45.042;38.994;2023-01-28T05:07:21;46.88;;;18.73;;
50683;SDS011;36654;45.042;38.994;2023-01-28T05:09:46;42.20;;;18.40;;
50683;SDS011;36654;45.042;38.994;2023-01-28T05:12:12;47.33;;;18.83;;
50683;SDS011;36654;45.042;38.994;2023-01-28T05:14:38;42.25;;;17.52;;
50683;SDS011;36654;45.042;38.994;2023-01-28T05:17:03;42.47;;;19.02;;
50683;SDS011;36654;45.042;38.994;2023-01-28T05:19:29;42.92;;;17.90;;
50683;SDS011;36654;45.042;38.994;2023-01-28T05:21:54;46.97;;;19.00;;
50683;SDS011;36654;45.042;38.994;2023-01-28T05:24:20;40.35;;;17.73;;
50683;SDS011;36654;45.042;38.994;2023-01-28T05:26:46;46.95;;;19.65;;
50683;SDS011;36654;45.042;38.994;2023-01-28T05:29:11;50.95;;;20.30;;
50683;SDS011;36654;45.042;38.994;2023-01-28T05:31:37;41.63;;;18.63;;
50683;SDS011;36654;45.042;38.994;2023-01-28T05:34:02;40.38;;;17.52;;
50683;SDS011;36654;45.042;38.994;2023-01-28T05:36:28;46.88;;;19.70;;
50683;SDS011;36654;45.042;38.994;2023-01-28T05:38:54;48.65;;;19.38;;
50683;SDS011;36654;45.042;38.994;2023-01-28T05:41:19;38.72;;;17.90;;
50683;SDS011;36654;45.042;38.994;2023-01-28T05:43:45;50.30;;;20.02;;
50683;SDS011;36654;45.042;38.994;2023-01-28T05:46:11;56.13;;;20.85;;
50683;SDS011;36654;45.042;38.994;2023-01-28T05:48:36;47.95;;;19.75;;
50683;SDS011;36654;45.042;38.994;2023-01-28T05:51:02;46.17;;;19.00;;
50683;SDS011;36654;45.042;38.994;2023-01-28T05:53:29;43.67;;;19.90;;
50683;SDS011;36654;45.042;38.994;2023-01-28T05:55:55;51.17;;;20.65;;
50683;SDS011;36654;45.042;38.994;2023-01-28T05:58:20;47.40;;;19.58;;
50683;SDS011;36654;45.042;38.994;2023-01-28T06:00:46;39.92;;;18.40;;
50683;SDS011;36654;45.042;38.994;2023-01-28T06:03:12;45.35;;;18.42;;
50683;SDS011;36654;45.042;38.994;2023-01-28T06:05:37;47.58;;;20.00;;
50683;SDS011;36654;45.042;38.994;2023-01-28T06:08:03;44.90;;;20.13;;
50683;SDS011;36654;45.042;38.994;2023-01-28T06:10:29;46.33;;;19.83;;
50683;SDS011;36654;45.042;38.994;2023-01-28T06:12:55;43.90;;;19.88;;
50683;SDS011;36654;45.042;38.994;2023-01-28T06:15:20;49.65;;;20.13;;
50683;SDS011;36654;45.042;38.994;2023-01-28T06:17:46;48.92;;;20.17;;
50683;SDS011;36654;45.042;38.994;2023-01-28T06:20:12;49.85;;;19.88;;
50683;SDS011;36654;45.042;38.994;2023-01-28T06:22:37;53.10;;;21.80;;
50683;SDS011;36654;45.042;38.994;2023-01-28T06:25:03;43.55;;;19.20;;
50683;SDS011;36654;45.042;38.994;2023-01-28T06:27:29;44.20;;;18.77;;
50683;SDS011;36654;45.042;38.994;2023-01-28T06:29:54;40.15;;;17.17;;
50683;SDS011;36654;45.042;38.994;2023-01-28T06:32:20;36.22;;;17.35;;
50683;SDS011;36654;45.042;38.994;2023-01-28T06:34:46;39.65;;;19.73;;
50683;SDS011;36654;45.042;38.994;2023-01-28T06:37:14;42.88;;;19.05;;
50683;SDS011;36654;45.042;38.994;2023-01-28T06:39:40;38.72;;;17.13;;
50683;SDS011;36654;45.042;38.994;2023-01-28T06:42:05;46.47;;;19.45;;
50683;SDS011;36654;45.042;38.994;2023-01-28T06:44:31;42.20;;;18.38;;
50683;SDS011;36654;45.042;38.994;2023-01-28T06:46:57;45.08;;;18.70;;
50683;SDS011;36654;45.042;38.994;2023-01-28T06:49:22;40.70;;;18.23;;
50683;SDS011;36654;45.042;38.994;2023-01-28T06:51:48;42.00;;;19.13;;
50683;SDS011;36654;45.042;38.994;2023-01-28T06:54:14;45.63;;;19.65;;
50683;SDS011;36654;45.042;38.994;2023-01-28T06:56:40;43.45;;;18.75;;
50683;SDS011;36654;45.042;38.994;2023-01-28T06:59:06;38.78;;;16.67;;
50683;SDS011;36654;45.042;38.994;2023-01-28T07:01:31;49.03;;;18.20;;
50683;SDS011;36654;45.042;38.994;2023-01-28T07:03:58;39.13;;;17.73;;
50683;SDS011;36654;45.042;38.994;2023-01-28T07:06:23;50.95;;;20.05;;
50683;SDS011;36654;45.042;38.994;2023-01-28T07:08:49;38.53;;;17.65;;
50683;SDS011;36654;45.042;38.994;2023-01-28T07:11:15;44.58;;;19.45;;
50683;SDS011;36654;45.042;38.994;2023-01-28T07:13:41;34.30;;;16.45;;
50683;SDS011;36654;45.042;38.994;2023-01-28T07:16:07;38.10;;;18.92;;
50683;SDS011;36654;45.042;38.994;2023-01-28T07:18:33;40.13;;;17.98;;
50683;SDS011;36654;45.042;38.994;2023-01-28T07:20:59;37.05;;;18.60;;
50683;SDS011;36654;45.042;38.994;2023-01-28T07:23:24;39.92;;;17.92;;
50683;SDS011;36654;45.042;38.994;2023-01-28T07:25:50;37.95;;;18.10;;
50683;SDS011;36654;45.042;38.994;2023-01-28T07:28:15;38.72;;;18.70;;
50683;SDS011;36654;45.042;38.994;2023-01-28T07:30:49;42.55;;;20.90;;
50683;SDS011;36654;45.042;38.994;2023-01-28T07:33:15;45.80;;;17.38;;
50683;SDS011;36654;45.042;38.994;2023-01-28T07:35:41;35.28;;;16.55;;
50683;SDS011;36654;45.042;38.994;2023-01-28T07:38:07;40.25;;;18.70;;
50683;SDS011;36654;45.042;38.994;2023-01-28T07:40:32;36.25;;;16.83;;
50683;SDS011;36654;45.042;38.994;2023-01-28T07:42:58;36.25;;;17.08;;
50683;SDS011;36654;45.042;38.994;2023-01-28T07:45:25;39.83;;;17.35;;
50683;SDS011;36654;45.042;38.994;2023-01-28T07:47:55;36.72;;;18.23;;
50683;SDS011;36654;45.042;38.994;2023-01-28T07:50:23;44.70;;;16.98;;
50683;SDS011;36654;45.042;38.994;2023-01-28T07:52:49;43.40;;;19.83;;
50683;SDS011;36654;45.042;38.994;2023-01-28T07:55:15;37.35;;;17.30;;
50683;SDS011;36654;45.042;38.994;2023-01-28T07:57:55;38.45;;;18.00;;
50683;SDS011;36654;45.042;38.994;2023-01-28T08:00:22;37.97;;;16.98;;
50683;SDS011;36654;45.042;38.994;2023-01-28T08:02:49;37.90;;;17.63;;
50683;SDS011;36654;45.042;38.994;2023-01-28T08:05:19;48.95;;;19.42;;
50683;SDS011;36654;45.042;38.994;2023-01-28T08:07:46;36.83;;;18.38;;
50683;SDS011;36654;45.042;38.994;2023-01-28T08:10:18;41.25;;;19.05;;
50683;SDS011;36654;45.042;38.994;2023-01-28T08:12:53;40.97;;;19.92;;
50683;SDS011;36654;45.042;38.994;2023-01-28T08:15:21;39.35;;;19.13;;
50683;SDS011;36654;45.042;38.994;2023-01-28T08:17:47;51.60;;;19.30;;
50683;SDS011;36654;45.042;38.994;2023-01-28T08:20:13;40.92;;;18.90;;
50683;SDS011;36654;45.042;38.994;2023-01-28T08:22:39;40.55;;;19.58;;
50683;SDS011;36654;45.042;38.994;2023-01-28T08:25:04;34.80;;;17.10;;
50683;SDS011;36654;45.042;38.994;2023-01-28T08:27:30;38.83;;;18.38;;
50683;SDS011;36654;45.042;38.994;2023-01-28T08:29:56;38.72;;;17.30;;
50683;SDS011;36654;45.042;38.994;2023-01-28T08:32:21;39.10;;;18.25;;
50683;SDS011;36654;45.042;38.994;2023-01-28T08:34:47;40.70;;;18.73;;
50683;SDS011;36654;45.042;38.994;2023-01-28T08:37:12;42.42;;;17.50;;
50683;SDS011;36654;45.042;38.994;2023-01-28T08:39:38;43.42;;;16.40;;
50683;SDS011;36654;45.042;38.994;2023-01-28T08:42:04;38.38;;;17.67;;
50683;SDS011;36654;45.042;38.994;2023-01-28T08:44:31;39.75;;;18.25;;
50683;SDS011;36654;45.042;38.994;2023-01-28T08:46:56;41.60;;;16.83;;
50683;SDS011;36654;45.042;38.994;2023-01-28T08:49:22;35.70;;;18.15;;
50683;SDS011;36654;45.042;38.994;2023-01-28T08:51:48;40.70;;;19.58;;
50683;SDS011;36654;45.042;38.994;2023-01-28T08:54:13;41.33;;;19.13;;
50683;SDS011;36654;45.042;38.994;2023-01-28T08:56:39;45.28;;;19.77;;
50683;SDS011;36654;45.042;38.994;2023-01-28T08:59:08;38.83;;;18.23;;
50683;SDS011;36654;45.042;38.994;2023-01-28T09:01:36;43.67;;;19.90;;
50683;SDS011;36654;45.042;38.994;2023-01-28T09:04:02;36.17;;;19.77;;
50683;SDS011;36654;45.042;38.994;2023-01-28T09:06:28;41.75;;;19.65;;
50683;SDS011;36654;45.042;38.994;2023-01-28T09:08:57;42.80;;;20.13;;
50683;SDS011;36654;45.042;38.994;2023-01-28T09:11:23;40.10;;;19.83;;
50683;SDS011;36654;45.042;38.994;2023-01-28T09:13:49;40.92;;;19.33;;
50683;SDS011;36654;45.042;38.994;2023-01-28T09:16:15;45.40;;;20.33;;
50683;SDS011;36654;45.042;38.994;2023-01-28T09:18:40;46.38;;;20.27;;
50683;SDS011;36654;45.042;38.994;2023-01-28T09:21:06;46.42;;;21.27;;
50683;SDS011;36654;45.042;38.994;2023-01-28T09:23:35;49.45;;;19.88;;
50683;SDS011;36654;45.042;38.994;2023-01-28T09:26:02;44.55;;;21.63;;
50683;SDS011;36654;45.042;38.994;2023-01-28T09:28:29;46.83;;;23.00;;
50683;SDS011;36654;45.042;38.994;2023-01-28T09:31:04;46.78;;;23.35;;
50683;SDS011;36654;45.042;38.994;2023-01-28T09:33:31;49.00;;;22.67;;
50683;SDS011;36654;45.042;38.994;2023-01-28T09:35:59;49.83;;;22.17;;
50683;SDS011;36654;45.042;38.994;2023-01-28T09:38:25;53.50;;;24.08;;
50683;SDS011;36654;45.042;38.994;2023-01-28T09:40:51;46.00;;;21.50;;
50683;SDS011;36654;45.042;38.994;2023-01-28T09:46:02;53.78;;;24.52;;
50683;SDS011;36654;45.042;38.994;2023-01-28T09:48:34;56.30;;;25.48;;
50683;SDS011;36654;45.042;38.994;2023-01-28T09:51:09;49.45;;;22.90;;
50683;SDS011;36654;45.042;38.994;2023-01-28T09:53:44;61.92;;;24.50;;
50683;SDS011;36654;45.042;38.994;2023-01-28T09:56:15;54.40;;;24.75;;
50683;SDS011;36654;45.042;38.994;2023-01-28T09:58:50;47.92;;;24.30;;
50683;SDS011;36654;45.042;38.994;2023-01-28T10:01:34;59.65;;;25.75;;
50683;SDS011;36654;45.042;38.994;2023-01-28T10:07:20;46.72;;;22.52;;
50683;SDS011;36654;45.042;38.994;2023-01-28T10:09:58;48.58;;;22.70;;
50683;SDS011;36654;45.042;38.994;2023-01-28T10:12:49;51.35;;;22.67;;
50683;SDS011;36654;45.042;38.994;2023-01-28T10:18:11;48.45;;;21.33;;
50683;SDS011;36654;45.042;38.994;2023-01-28T10:23:40;48.60;;;22.25;;
50683;SDS011;36654;45.042;38.994;2023-01-28T10:26:22;51.05;;;22.58;;
50683;SDS011;36654;45.042;38.994;2023-01-28T10:28:58;53.38;;;23.33;;
50683;SDS011;36654;45.042;38.994;2023-01-28T10:31:34;47.30;;;22.27;;
50683;SDS011;36654;45.042;38.994;2023-01-28T10:34:03;53.55;;;22.35;;
50683;SDS011;36654;45.042;38.994;2023-01-28T10:36:29;50.47;;;23.55;;
50683;SDS011;36654;45.042;38.994;2023-01-28T10:38:55;48.40;;;20.60;;
50683;SDS011;36654;45.042;38.994;2023-01-28T10:41:21;55.30;;;23.27;;
50683;SDS011;36654;45.042;38.994;2023-01-28T10:43:47;47.83;;;22.75;;
50683;SDS011;36654;45.042;38.994;2023-01-28T10:46:16;55.05;;;24.10;;
50683;SDS011;36654;45.042;38.994;2023-01-28T10:51:39;51.63;;;26.35;;
50683;SDS011;36654;45.042;38.994;2023-01-28T10:54:26;59.10;;;23.98;;
50683;SDS011;36654;45.042;38.994;2023-01-28T10:56:53;48.08;;;23.83;;
50683;SDS011;36654;45.042;38.994;2023-01-28T11:01:53;52.72;;;24.55;;
50683;SDS011;36654;45.042;38.994;2023-01-28T11:04:29;44.40;;;20.52;;
50683;SDS011;36654;45.042;38.994;2023-01-28T11:12:09;50.58;;;24.30;;
50683;SDS011;36654;45.042;38.994;2023-01-28T11:14:54;49.03;;;21.98;;
50683;SDS011;36654;45.042;38.994;2023-01-28T11:17:24;50.53;;;21.60;;
50683;SDS011;36654;45.042;38.994;2023-01-28T11:19:54;52.95;;;22.52;;
50683;SDS011;36654;45.042;38.994;2023-01-28T11:22:42;51.90;;;22.77;;
50683;SDS011;36654;45.042;38.994;2023-01-28T11:25:27;53.33;;;24.23;;
50683;SDS011;36654;45.042;38.994;2023-01-28T11:27:56;53.05;;;22.25;;
50683;SDS011;36654;45.042;38.994;2023-01-28T11:30:30;59.75;;;25.80;;
50683;SDS011;36654;45.042;38.994;2023-01-28T11:33:07;46.45;;;22.52;;
50683;SDS011;36654;45.042;38.994;2023-01-28T11:38:25;47.00;;;20.20;;
50683;SDS011;36654;45.042;38.994;2023-01-28T11:40:51;42.25;;;20.77;;
50683;SDS011;36654;45.042;38.994;2023-01-28T11:43:25;49.65;;;21.35;;
50683;SDS011;36654;45.042;38.994;2023-01-28T11:46:35;50.50;;;21.42;;
50683;SDS011;36654;45.042;38.994;2023-01-28T11:49:10;45.60;;;18.83;;
50683;SDS011;36654;45.042;38.994;2023-01-28T11:54:35;46.10;;;21.85;;
50683;SDS011;36654;45.042;38.994;2023-01-28T11:57:33;44.65;;;22.42;;
50683;SDS011;36654;45.042;38.994;2023-01-28T12:02:45;48.72;;;21.10;;
50683;SDS011;36654;45.042;38.994;2023-01-28T12:08:22;47.75;;;22.40;;
50683;SDS011;36654;45.042;38.994;2023-01-28T12:19:13;47.65;;;21.50;;
50683;SDS011;36654;45.042;38.994;2023-01-28T12:33:40;48.92;;;21.48;;
50683;SDS011;36654;45.042;38.994;2023-01-28T12:42:35;42.85;;;21.40;;
50683;SDS011;36654;45.042;38.994;2023-01-28T12:45:14;41.42;;;19.42;;
50683;SDS011;36654;45.042;38.994;2023-01-28T12:48:19;43.67;;;22.05;;
50683;SDS011;36654;45.042;38.994;2023-01-28T12:50:44;38.00;;;19.05;;
50683;SDS011;36654;45.042;38.994;2023-01-28T12:56:02;40.83;;;18.75;;
50683;SDS011;36654;45.042;38.994;2023-01-28T12:58:38;41.38;;;20.42;;
50683;SDS011;36654;45.042;38.994;2023-01-28T13:01:09;46.38;;;22.27;;
50683;SDS011;36654;45.042;38.994;2023-01-28T13:03:50;45.70;;;21.90;;
50683;SDS011;36654;45.042;38.994;2023-01-28T13:06:28;43.17;;;20.88;;
50683;SDS011;36654;45.042;38.994;2023-01-28T13:09:01;51.58;;;24.30;;
50683;SDS011;36654;45.042;38.994;2023-01-28T13:11:35;46.63;;;22.27;;
50683;SDS011;36654;45.042;38.994;2023-01-28T13:14:02;48.72;;;23.00;;
50683;SDS011;36654;45.042;38.994;2023-01-28T13:16:29;41.08;;;20.20;;
50683;SDS011;36654;45.042;38.994;2023-01-28T13:21:43;39.97;;;20.85;;
50683;SDS011;36654;45.042;38.994;2023-01-28T13:26:42;42.28;;;20.60;;
50683;SDS011;36654;45.042;38.994;2023-01-28T13:31:40;39.08;;;20.23;;
50683;SDS011;36654;45.042;38.994;2023-01-28T13:34:08;41.00;;;20.63;;
50683;SDS011;36654;45.042;38.994;2023-01-28T13:36:50;41.58;;;20.40;;
50683;SDS011;36654;45.042;38.994;2023-01-28T13:39:18;45.35;;;22.13;;
50683;SDS011;36654;45.042;38.994;2023-01-28T13:41:47;48.17;;;22.75;;
50683;SDS011;36654;45.042;38.994;2023-01-28T13:44:35;45.75;;;23.30;;
50683;SDS011;36654;45.042;38.994;2023-01-28T13:49:41;51.30;;;23.77;;
50683;SDS011;36654;45.042;38.994;2023-01-28T13:54:36;50.80;;;25.77;;
50683;SDS011;36654;45.042;38.994;2023-01-28T14:03:17;48.83;;;23.15;;
50683;SDS011;36654;45.042;38.994;2023-01-28T14:05:50;48.33;;;23.45;;
50683;SDS011;36654;45.042;38.994;2023-01-28T14:15:04;43.60;;;21.42;;
50683;SDS011;36654;45.042;38.994;2023-01-28T14:19:52;45.47;;;20.00;;
50683;SDS011;36654;45.042;38.994;2023-01-28T14:22:19;38.38;;;20.83;;
50683;SDS011;36654;45.042;38.994;2023-01-28T14:24:45;45.05;;;22.17;;
50683;SDS011;36654;45.042;38.994;2023-01-28T14:27:22;43.28;;;21.90;;
50683;SDS011;36654;45.042;38.994;2023-01-28T14:32:44;45.45;;;20.15;;
50683;SDS011;36654;45.042;38.994;2023-01-28T14:35:15;46.70;;;21.95;;
50683;SDS011;36654;45.042;38.994;2023-01-28T14:37:44;47.92;;;22.42;;
50683;SDS011;36654;45.042;38.994;2023-01-28T14:40:13;40.90;;;20.65;;
50683;SDS011;36654;45.042;38.994;2023-01-28T14:42:42;42.10;;;20.38;;
50683;SDS011;36654;45.042;38.994;2023-01-28T14:50:48;40.03;;;21.10;;
50683;SDS011;36654;45.042;38.994;2023-01-28T14:59:05;41.33;;;20.98;;
50683;SDS011;36654;45.042;38.994;2023-01-28T15:01:42;41.08;;;21.85;;
50683;SDS011;36654;45.042;38.994;2023-01-28T15:04:23;47.17;;;23.13;;
50683;SDS011;36654;45.042;38.994;2023-01-28T15:06:50;44.13;;;21.83;;
50683;SDS011;36654;45.042;38.994;2023-01-28T15:09:16;45.33;;;22.48;;
50683;SDS011;36654;45.042;38.994;2023-01-28T15:11:42;50.28;;;25.08;;
50683;SDS011;36654;45.042;38.994;2023-01-28T15:14:29;48.78;;;24.33;;
50683;SDS011;36654;45.042;38.994;2023-01-28T15:16:56;43.25;;;22.67;;
50683;SDS011;36654;45.042;38.994;2023-01-28T15:19:33;46.30;;;24.70;;
50683;SDS011;36654;45.042;38.994;2023-01-28T15:22:04;48.28;;;24.08;;
50683;SDS011;36654;45.042;38.994;2023-01-28T15:24:34;53.38;;;25.65;;
50683;SDS011;36654;45.042;38.994;2023-01-28T15:27:00;47.80;;;24.40;;
50683;SDS011;36654;45.042;38.994;2023-01-28T15:31:55;49.60;;;24.55;;
50683;SDS011;36654;45.042;38.994;2023-01-28T15:34:21;49.97;;;26.45;;
50683;SDS011;36654;45.042;38.994;2023-01-28T15:36:54;43.30;;;23.20;;
50683;SDS011;36654;45.042;38.994;2023-01-28T15:39:29;47.55;;;26.83;;
50683;SDS011;36654;45.042;38.994;2023-01-28T15:41:58;48.80;;;24.75;;
50683;SDS011;36654;45.042;38.994;2023-01-28T15:46:58;51.70;;;24.60;;
50683;SDS011;36654;45.042;38.994;2023-01-28T15:49:26;46.60;;;24.42;;
50683;SDS011;36654;45.042;38.994;2023-01-28T15:51:56;38.97;;;21.48;;
50683;SDS011;36654;45.042;38.994;2023-01-28T15:54:22;44.90;;;22.30;;
50683;SDS011;36654;45.042;38.994;2023-01-28T15:56:48;38.88;;;21.33;;
50683;SDS011;36654;45.042;38.994;2023-01-28T16:01:40;43.78;;;22.42;;
50683;SDS011;36654;45.042;38.994;2023-01-28T16:04:18;45.45;;;21.63;;
50683;SDS011;36654;45.042;38.994;2023-01-28T16:06:47;44.30;;;22.38;;
50683;SDS011;36654;45.042;38.994;2023-01-28T16:09:18;42.05;;;19.45;;
50683;SDS011;36654;45.042;38.994;2023-01-28T16:11:48;43.03;;;20.23;;
50683;SDS011;36654;45.042;38.994;2023-01-28T16:14:21;36.97;;;19.30;;
50683;SDS011;36654;45.042;38.994;2023-01-28T16:16:53;40.55;;;19.25;;
50683;SDS011;36654;45.042;38.994;2023-01-28T16:19:31;40.40;;;19.63;;
50683;SDS011;36654;45.042;38.994;2023-01-28T16:22:05;42.78;;;20.48;;
50683;SDS011;36654;45.042;38.994;2023-01-28T16:24:33;38.80;;;19.45;;
50683;SDS011;36654;45.042;38.994;2023-01-28T16:27:16;40.10;;;19.42;;
50683;SDS011;36654;45.042;38.994;2023-01-28T16:29:44;35.25;;;19.80;;
50683;SDS011;36654;45.042;38.994;2023-01-28T16:32:24;39.42;;;18.30;;
50683;SDS011;36654;45.042;38.994;2023-01-28T16:35:05;33.45;;;18.27;;
50683;SDS011;36654;45.042;38.994;2023-01-28T16:37:41;34.70;;;17.83;;